sensor_id;sensor_type;location;lat;lon;timestamp;pressure;altitude;pressure_sealevel;temperature;humidity
80640;BME280;69992;60.170;24.692;2023-09-30T00:01:56;100685.43;;;11.32;33.84
80640;BME280;69992;60.170;24.692;2023-09-30T00:04:21;100680.37;;;11.28;33.85
80640;BME280;69992;60.170;24.692;2023-09-30T00:06:46;100673.70;;;11.28;33.85
80640;BME280;69992;60.170;24.692;2023-09-30T00:09:12;100665.95;;;11.24;33.87
80640;BME280;69992;60.170;24.692;2023-09-30T00:11:38;100660.36;;;11.18;33.87
80640;BME280;69992;60.170;24.692;2023-09-30T00:14:03;100653.38;;;11.14;33.89
80640;BME280;69992;60.170;24.692;2023-09-30T00:16:29;100647.08;;;11.14;33.87
80640;BME280;69992;60.170;24.692;2023-09-30T00:18:54;100650.32;;;11.13;33.87
80640;BME280;69992;60.170;24.692;2023-09-30T00:21:19;100650.88;;;11.11;33.87
80640;BME280;69992;60.170;24.692;2023-09-30T00:23:45;100642.91;;;10.13;33.88
80640;BME280;69992;60.170;24.692;2023-09-30T00:26:10;100642.97;;;11.10;33.87
80640;BME280;69992;60.170;24.692;2023-09-30T00:28:36;100641.35;;;12.16;33.79
80640;BME280;69992;60.170;24.692;2023-09-30T00:31:05;100644.44;;;11.07;33.85
80640;BME280;69992;60.170;24.692;2023-09-30T00:33:27;100639.39;;;11.02;33.87
80640;BME280;69992;60.170;24.692;2023-09-30T00:35:52;100644.49;;;11.06;33.87
80640;BME280;69992;60.170;24.692;2023-09-30T00:38:18;100640.51;;;11.05;33.88
80640;BME280;69992;60.170;24.692;2023-09-30T00:40:47;100631.99;;;11.09;33.86
80640;BME280;69992;60.170;24.692;2023-09-30T00:43:17;100627.40;;;10.17;33.84
80640;BME280;69992;60.170;24.692;2023-09-30T00:48:00;100633.76;;;11.11;33.89
80640;BME280;69992;60.170;24.692;2023-09-30T00:50:25;100621.86;;;11.19;33.86
80640;BME280;69992;60.170;24.692;2023-09-30T00:52:50;100621.83;;;10.35;33.81
80640;BME280;69992;60.170;24.692;2023-09-30T00:55:16;100615.89;;;11.38;33.80
80640;BME280;69992;60.170;24.692;2023-09-30T00:57:41;100607.28;;;9.46;33.78
80640;BME280;69992;60.170;24.692;2023-09-30T01:00:08;100605.54;;;10.49;33.77
80640;BME280;69992;60.170;24.692;2023-09-30T01:02:31;100598.33;;;11.45;33.78
80640;BME280;69992;60.170;24.692;2023-09-30T01:04:57;100587.70;;;10.45;33.81
80640;BME280;69992;60.170;24.692;2023-09-30T01:07:23;100582.95;;;11.43;33.81
80640;BME280;69992;60.170;24.692;2023-09-30T01:09:48;100575.81;;;10.47;33.81
80640;BME280;69992;60.170;24.692;2023-09-30T01:12:13;100575.54;;;11.45;33.83
80640;BME280;69992;60.170;24.692;2023-09-30T01:14:39;100569.17;;;11.50;33.82
80640;BME280;69992;60.170;24.692;2023-09-30T01:17:04;100564.77;;;10.55;33.84
80640;BME280;69992;60.170;24.692;2023-09-30T01:19:30;100560.13;;;11.57;33.86
80640;BME280;69992;60.170;24.692;2023-09-30T01:21:56;100551.02;;;11.57;33.86
80640;BME280;69992;60.170;24.692;2023-09-30T01:24:22;100545.45;;;10.63;33.86
80640;BME280;69992;60.170;24.692;2023-09-30T01:26:48;100548.07;;;10.65;33.88
80640;BME280;69992;60.170;24.692;2023-09-30T01:29:13;100543.89;;;11.69;33.85
80640;BME280;69992;60.170;24.692;2023-09-30T01:31:39;100539.13;;;11.71;33.85
80640;BME280;69992;60.170;24.692;2023-09-30T01:34:04;100536.49;;;9.86;33.84
80640;BME280;69992;60.170;24.692;2023-09-30T01:36:29;100526.81;;;11.89;33.80
80640;BME280;69992;60.170;24.692;2023-09-30T01:38:54;100525.12;;;10.91;33.80
80640;BME280;69992;60.170;24.692;2023-09-30T01:41:20;100527.94;;;11.86;33.84
80640;BME280;69992;60.170;24.692;2023-09-30T01:43:46;100522.91;;;11.81;33.87
80640;BME280;69992;60.170;24.692;2023-09-30T01:46:11;100515.65;;;10.82;33.88
80640;BME280;69992;60.170;24.692;2023-09-30T01:48:37;100514.91;;;11.77;33.90
80640;BME280;69992;60.170;24.692;2023-09-30T01:51:03;100517.12;;;11.77;33.91
80640;BME280;69992;60.170;24.692;2023-09-30T01:53:28;100511.74;;;11.82;33.90
80640;BME280;69992;60.170;24.692;2023-09-30T01:55:54;100500.09;;;10.83;33.92
80640;BME280;69992;60.170;24.692;2023-09-30T01:58:19;100495.04;;;11.78;33.93
80640;BME280;69992;60.170;24.692;2023-09-30T02:00:45;100491.84;;;10.77;33.96
80640;BME280;69992;60.170;24.692;2023-09-30T02:03:11;100484.38;;;11.74;33.97
80640;BME280;69992;60.170;24.692;2023-09-30T02:05:36;100485.41;;;11.73;33.99
80640;BME280;69992;60.170;24.692;2023-09-30T02:08:01;100479.70;;;10.86;33.97
80640;BME280;69992;60.170;24.692;2023-09-30T02:10:26;100479.35;;;11.94;33.93
80640;BME280;69992;60.170;24.692;2023-09-30T02:12:52;100478.70;;;10.00;33.94
80640;BME280;69992;60.170;24.692;2023-09-30T02:15:17;100478.09;;;11.88;33.98
80640;BME280;69992;60.170;24.692;2023-09-30T02:17:42;100474.60;;;9.88;34.00
80640;BME280;69992;60.170;24.692;2023-09-30T02:20:08;100468.98;;;11.75;34.04
80640;BME280;69992;60.170;24.692;2023-09-30T02:22:34;100462.03;;;11.76;34.06
80640;BME280;69992;60.170;24.692;2023-09-30T02:24:59;100457.69;;;10.86;34.06
80640;BME280;69992;60.170;24.692;2023-09-30T02:27:25;100463.18;;;11.86;34.07
80640;BME280;69992;60.170;24.692;2023-09-30T02:29:50;100455.74;;;10.89;34.09
80640;BME280;69992;60.170;24.692;2023-09-30T02:32:17;100456.53;;;10.87;34.11
80640;BME280;69992;60.170;24.692;2023-09-30T02:34:41;100457.96;;;9.91;34.12
80640;BME280;69992;60.170;24.692;2023-09-30T02:37:07;100459.92;;;11.85;34.14
80640;BME280;69992;60.170;24.692;2023-09-30T02:39:33;100455.44;;;11.91;34.15
80640;BME280;69992;60.170;24.692;2023-09-30T02:41:59;100454.94;;;11.86;34.21
80640;BME280;69992;60.170;24.692;2023-09-30T02:44:24;100451.63;;;10.86;34.19
80640;BME280;69992;60.170;24.692;2023-09-30T02:46:49;100446.19;;;10.86;34.22
80640;BME280;69992;60.170;24.692;2023-09-30T02:49:14;100444.77;;;11.93;34.21
80640;BME280;69992;60.170;24.692;2023-09-30T02:51:41;100443.84;;;10.99;34.19
80640;BME280;69992;60.170;24.692;2023-09-30T02:54:06;100441.52;;;11.06;34.18
80640;BME280;69992;60.170;24.692;2023-09-30T02:56:30;100436.24;;;11.08;34.18
80640;BME280;69992;60.170;24.692;2023-09-30T02:58:56;100432.02;;;10.12;34.18
80640;BME280;69992;60.170;24.692;2023-09-30T03:01:21;100427.80;;;12.05;34.20
80640;BME280;69992;60.170;24.692;2023-09-30T03:03:46;100425.85;;;11.07;34.22
80640;BME280;69992;60.170;24.692;2023-09-30T03:06:12;100414.68;;;11.87;34.51
80640;BME280;69992;60.170;24.692;2023-09-30T03:08:38;100425.06;;;10.75;34.43
80640;BME280;69992;60.170;24.692;2023-09-30T03:11:03;100422.51;;;9.70;34.44
80640;BME280;69992;60.170;24.692;2023-09-30T03:13:28;100421.33;;;10.59;34.47
80640;BME280;69992;60.170;24.692;2023-09-30T03:15:53;100414.28;;;11.49;34.45
80640;BME280;69992;60.170;24.692;2023-09-30T03:18:19;100424.53;;;10.56;34.40
80640;BME280;69992;60.170;24.692;2023-09-30T03:20:44;100420.04;;;9.58;34.42
80640;BME280;69992;60.170;24.692;2023-09-30T03:23:10;100423.39;;;11.50;34.42
80640;BME280;69992;60.170;24.692;2023-09-30T03:25:36;100415.72;;;11.61;34.38
80640;BME280;69992;60.170;24.692;2023-09-30T03:28:01;100416.52;;;11.62;34.38
80640;BME280;69992;60.170;24.692;2023-09-30T03:30:26;100413.32;;;10.72;34.33
80640;BME280;69992;60.170;24.692;2023-09-30T03:32:51;100406.99;;;10.66;34.36
80640;BME280;69992;60.170;24.692;2023-09-30T03:35:17;100404.94;;;10.63;34.37
80640;BME280;69992;60.170;24.692;2023-09-30T03:37:43;100402.70;;;10.70;34.35
80640;BME280;69992;60.170;24.692;2023-09-30T03:40:09;100400.14;;;10.68;34.35
80640;BME280;69992;60.170;24.692;2023-09-30T03:42:34;100376.08;;;11.76;34.31
80640;BME280;69992;60.170;24.692;2023-09-30T03:44:59;100371.45;;;10.85;34.30
80640;BME280;69992;60.170;24.692;2023-09-30T03:47:25;100357.10;;;11.74;34.32
80640;BME280;69992;60.170;24.692;2023-09-30T03:49:50;100351.19;;;10.74;34.35
80640;BME280;69992;60.170;24.692;2023-09-30T03:52:16;100352.96;;;11.75;34.31
80640;BME280;69992;60.170;24.692;2023-09-30T03:54:41;100337.72;;;10.84;34.29
80640;BME280;69992;60.170;24.692;2023-09-30T03:57:07;100341.65;;;11.86;34.26
80640;BME280;69992;60.170;24.692;2023-09-30T03:59:32;100338.48;;;11.86;34.25
80640;BME280;69992;60.170;24.692;2023-09-30T04:01:57;100334.58;;;10.89;34.26
80640;BME280;69992;60.170;24.692;2023-09-30T04:04:22;100334.28;;;10.90;34.24
80640;BME280;69992;60.170;24.692;2023-09-30T04:06:47;100328.77;;;11.98;34.23
80640;BME280;69992;60.170;24.692;2023-09-30T04:09:13;100315.32;;;11.91;34.23
80640;BME280;69992;60.170;24.692;2023-09-30T04:11:39;100318.45;;;10.84;34.27
80640;BME280;69992;60.170;24.692;2023-09-30T04:14:06;100316.39;;;11.82;34.25
80640;BME280;69992;60.170;24.692;2023-09-30T04:16:29;100320.32;;;11.88;34.23
80640;BME280;69992;60.170;24.692;2023-09-30T04:18:55;100318.44;;;10.98;34.21
80640;BME280;69992;60.170;24.692;2023-09-30T04:21:20;100316.87;;;11.94;34.23
80640;BME280;69992;60.170;24.692;2023-09-30T04:23:45;100317.30;;;10.92;34.25
80640;BME280;69992;60.170;24.692;2023-09-30T04:26:11;100317.65;;;11.92;34.26
80640;BME280;69992;60.170;24.692;2023-09-30T04:28:36;100318.74;;;10.90;34.25
80640;BME280;69992;60.170;24.692;2023-09-30T04:31:01;100323.16;;;10.90;34.25
80640;BME280;69992;60.170;24.692;2023-09-30T04:33:26;100320.48;;;10.94;34.25
80640;BME280;69992;60.170;24.692;2023-09-30T04:35:52;100316.50;;;10.93;34.26
80640;BME280;69992;60.170;24.692;2023-09-30T04:38:17;100313.90;;;10.84;34.32
80640;BME280;69992;60.170;24.692;2023-09-30T04:40:43;100303.87;;;10.86;34.32
80640;BME280;69992;60.170;24.692;2023-09-30T04:43:08;100298.85;;;11.01;34.28
80640;BME280;69992;60.170;24.692;2023-09-30T04:45:34;100298.93;;;12.09;34.24
80640;BME280;69992;60.170;24.692;2023-09-30T04:47:59;100297.35;;;12.19;34.22
80640;BME280;69992;60.170;24.692;2023-09-30T04:50:24;100295.37;;;11.26;34.20
80640;BME280;69992;60.170;24.692;2023-09-30T04:52:50;100292.31;;;11.28;34.20
80640;BME280;69992;60.170;24.692;2023-09-30T04:55:15;100281.27;;;11.31;34.21
80640;BME280;69992;60.170;24.692;2023-09-30T04:57:41;100272.81;;;11.27;34.25
80640;BME280;69992;60.170;24.692;2023-09-30T05:00:07;100280.39;;;11.34;34.23
80640;BME280;69992;60.170;24.692;2023-09-30T05:02:31;100274.14;;;11.45;34.20
80640;BME280;69992;60.170;24.692;2023-09-30T05:04:56;100269.65;;;10.46;34.23
80640;BME280;69992;60.170;24.692;2023-09-30T05:07:22;100262.92;;;10.48;34.24
80640;BME280;69992;60.170;24.692;2023-09-30T05:09:47;100256.56;;;11.40;34.26
80640;BME280;69992;60.170;24.692;2023-09-30T05:12:12;100251.24;;;11.47;34.24
80640;BME280;69992;60.170;24.692;2023-09-30T05:14:38;100248.03;;;12.56;34.19
80640;BME280;69992;60.170;24.692;2023-09-30T05:17:03;100245.16;;;10.61;34.21
80640;BME280;69992;60.170;24.692;2023-09-30T05:19:29;100245.66;;;12.55;34.23
80640;BME280;69992;60.170;24.692;2023-09-30T05:21:54;100244.32;;;10.53;34.27
80640;BME280;69992;60.170;24.692;2023-09-30T05:24:19;100236.97;;;11.43;34.30
80640;BME280;69992;60.170;24.692;2023-09-30T05:26:44;100231.83;;;10.50;34.30
80640;BME280;69992;60.170;24.692;2023-09-30T05:29:10;100228.99;;;12.53;34.28
80640;BME280;69992;60.170;24.692;2023-09-30T05:31:36;100221.13;;;11.55;34.28
80640;BME280;69992;60.170;24.692;2023-09-30T05:34:02;100224.22;;;10.45;34.36
80640;BME280;69992;60.170;24.692;2023-09-30T05:36:27;100223.25;;;12.33;34.41
80640;BME280;69992;60.170;24.692;2023-09-30T05:38:52;100219.31;;;10.29;34.44
80640;BME280;69992;60.170;24.692;2023-09-30T05:41:17;100212.22;;;11.24;34.55
80640;BME280;69992;60.170;24.692;2023-09-30T05:43:43;100207.14;;;8.14;34.58
80640;BME280;69992;60.170;24.692;2023-09-30T05:46:08;100205.86;;;11.15;34.50
80640;BME280;69992;60.170;24.692;2023-09-30T05:48:33;100200.64;;;10.07;34.55
80640;BME280;69992;60.170;24.692;2023-09-30T05:50:59;100193.29;;;11.02;34.56
80640;BME280;69992;60.170;24.692;2023-09-30T05:53:24;100194.48;;;10.96;34.64
80640;BME280;69992;60.170;24.692;2023-09-30T05:55:50;100190.78;;;11.00;34.59
80640;BME280;69992;60.170;24.692;2023-09-30T05:58:16;100194.49;;;11.10;34.56
80640;BME280;69992;60.170;24.692;2023-09-30T06:00:41;100198.13;;;11.03;34.69
80640;BME280;69992;60.170;24.692;2023-09-30T06:03:06;100201.69;;;10.03;34.66
80640;BME280;69992;60.170;24.692;2023-09-30T06:05:31;100195.48;;;12.03;34.65
80640;BME280;69992;60.170;24.692;2023-09-30T06:07:57;100195.48;;;12.04;34.64
80640;BME280;69992;60.170;24.692;2023-09-30T06:10:23;100193.79;;;11.15;34.63
80640;BME280;69992;60.170;24.692;2023-09-30T06:12:50;100193.64;;;10.33;34.59
80640;BME280;69992;60.170;24.692;2023-09-30T06:15:13;100192.28;;;12.52;34.49
80640;BME280;69992;60.170;24.692;2023-09-30T06:17:40;100187.16;;;11.53;34.50
80640;BME280;69992;60.170;24.692;2023-09-30T06:20:05;100182.90;;;11.53;34.51
80640;BME280;69992;60.170;24.692;2023-09-30T06:22:30;100185.16;;;12.49;34.51
80640;BME280;69992;60.170;24.692;2023-09-30T06:24:55;100181.42;;;11.45;34.53
80640;BME280;69992;60.170;24.692;2023-09-30T06:27:21;100179.71;;;11.45;34.53
80640;BME280;69992;60.170;24.692;2023-09-30T06:29:46;100182.77;;;10.58;34.52
80640;BME280;69992;60.170;24.692;2023-09-30T06:32:12;100179.85;;;11.58;34.52
80640;BME280;69992;60.170;24.692;2023-09-30T06:34:37;100184.36;;;11.47;34.64
80640;BME280;69992;60.170;24.692;2023-09-30T06:37:03;100185.26;;;11.47;34.59
80640;BME280;69992;60.170;24.692;2023-09-30T06:39:28;100184.59;;;12.45;34.59
80640;BME280;69992;60.170;24.692;2023-09-30T06:41:54;100174.75;;;10.56;34.58
80640;BME280;69992;60.170;24.692;2023-09-30T06:44:19;100180.74;;;10.80;34.51
80640;BME280;69992;60.170;24.692;2023-09-30T06:46:45;100176.14;;;9.89;34.57
80640;BME280;69992;60.170;24.692;2023-09-30T06:49:10;100181.38;;;10.95;34.51
80640;BME280;69992;60.170;24.692;2023-09-30T06:51:37;100182.25;;;12.05;34.50
80640;BME280;69992;60.170;24.692;2023-09-30T06:54:04;100178.31;;;12.16;34.47
80640;BME280;69992;60.170;24.692;2023-09-30T06:56:27;100173.13;;;11.25;34.45
80640;BME280;69992;60.170;24.692;2023-09-30T06:58:53;100177.30;;;11.32;34.47
80640;BME280;69992;60.170;24.692;2023-09-30T07:01:18;100172.61;;;11.48;34.45
80640;BME280;69992;60.170;24.692;2023-09-30T07:03:43;100169.64;;;10.55;34.46
80640;BME280;69992;60.170;24.692;2023-09-30T07:06:09;100166.36;;;12.58;34.45
80640;BME280;69992;60.170;24.692;2023-09-30T07:08:35;100170.24;;;11.67;34.47
80640;BME280;69992;60.170;24.692;2023-09-30T07:11:00;100172.50;;;11.74;34.47
80640;BME280;69992;60.170;24.692;2023-09-30T07:13:25;100172.59;;;12.83;34.44
80640;BME280;69992;60.170;24.692;2023-09-30T07:15:51;100173.29;;;11.89;34.42
80640;BME280;69992;60.170;24.692;2023-09-30T07:18:16;100176.87;;;11.86;34.43
80640;BME280;69992;60.170;24.692;2023-09-30T07:20:41;100173.45;;;11.81;34.46
80640;BME280;69992;60.170;24.692;2023-09-30T07:23:07;100177.08;;;11.85;34.45
80640;BME280;69992;60.170;24.692;2023-09-30T07:25:32;100170.98;;;11.78;34.53
80640;BME280;69992;60.170;24.692;2023-09-30T07:27:58;100179.90;;;11.67;34.54
80640;BME280;69992;60.170;24.692;2023-09-30T07:30:23;100176.16;;;11.69;34.52
80640;BME280;69992;60.170;24.692;2023-09-30T07:32:49;100164.73;;;11.74;34.52
80640;BME280;69992;60.170;24.692;2023-09-30T07:35:14;100165.31;;;11.91;34.48
80640;BME280;69992;60.170;24.692;2023-09-30T07:37:40;100167.13;;;12.11;34.41
80640;BME280;69992;60.170;24.692;2023-09-30T07:40:06;100161.65;;;11.26;34.38
80640;BME280;69992;60.170;24.692;2023-09-30T07:42:30;100166.61;;;12.41;34.37
80640;BME280;69992;60.170;24.692;2023-09-30T07:44:55;100163.27;;;12.51;34.70
80640;BME280;69992;60.170;24.692;2023-09-30T07:47:21;100167.49;;;11.49;34.51
80640;BME280;69992;60.170;24.692;2023-09-30T07:49:46;100173.75;;;11.76;34.43
80640;BME280;69992;60.170;24.692;2023-09-30T07:52:12;100172.91;;;11.87;34.41
80640;BME280;69992;60.170;24.692;2023-09-30T07:54:38;100170.30;;;12.85;34.43
80640;BME280;69992;60.170;24.692;2023-09-30T07:57:03;100170.77;;;12.72;34.49
80640;BME280;69992;60.170;24.692;2023-09-30T07:59:28;100172.09;;;12.81;34.46
80640;BME280;69992;60.170;24.692;2023-09-30T08:01:54;100166.17;;;12.93;34.44
80640;BME280;69992;60.170;24.692;2023-09-30T08:04:20;100166.62;;;12.02;34.42
80640;BME280;69992;60.170;24.692;2023-09-30T08:06:45;100166.13;;;12.25;34.40
80640;BME280;69992;60.170;24.692;2023-09-30T08:09:13;100169.30;;;12.48;34.37
80640;BME280;69992;60.170;24.692;2023-09-30T08:11:36;100165.86;;;12.62;34.41
80640;BME280;69992;60.170;24.692;2023-09-30T08:14:01;100161.00;;;11.82;34.37
80640;BME280;69992;60.170;24.692;2023-09-30T08:16:27;100162.24;;;12.98;34.34
80640;BME280;69992;60.170;24.692;2023-09-30T08:18:52;100164.21;;;13.22;34.30
80640;BME280;69992;60.170;24.692;2023-09-30T08:21:18;100162.93;;;12.52;34.28
80640;BME280;69992;60.170;24.692;2023-09-30T08:23:43;100167.42;;;12.90;34.23
80640;BME280;69992;60.170;24.692;2023-09-30T08:26:08;100167.44;;;13.15;34.19
80640;BME280;69992;60.170;24.692;2023-09-30T08:28:34;100165.25;;;13.04;34.21
80640;BME280;69992;60.170;24.692;2023-09-30T08:31:03;100165.05;;;12.84;34.25
80640;BME280;69992;60.170;24.692;2023-09-30T08:33:25;100172.45;;;12.61;34.30
80640;BME280;69992;60.170;24.692;2023-09-30T08:35:50;100172.37;;;12.56;34.33
80640;BME280;69992;60.170;24.692;2023-09-30T08:38:15;100173.82;;;12.45;34.41
80640;BME280;69992;60.170;24.692;2023-09-30T08:40:41;100176.78;;;12.29;34.39
80640;BME280;69992;60.170;24.692;2023-09-30T08:43:11;100182.63;;;13.21;34.43
80640;BME280;69992;60.170;24.692;2023-09-30T08:45:33;100184.50;;;13.32;34.41
80640;BME280;69992;60.170;24.692;2023-09-30T08:47:57;100190.51;;;12.40;34.40
80640;BME280;69992;60.170;24.692;2023-09-30T08:50:23;100200.07;;;12.39;34.36
80640;BME280;69992;60.170;24.692;2023-09-30T08:52:49;100200.44;;;12.16;34.42
80640;BME280;69992;60.170;24.692;2023-09-30T08:55:14;100205.01;;;12.90;34.49
80640;BME280;69992;60.170;24.692;2023-09-30T08:57:41;100202.49;;;13.74;34.48
80640;BME280;69992;60.170;24.692;2023-09-30T09:00:06;100208.92;;;13.49;34.58
80640;BME280;69992;60.170;24.692;2023-09-30T09:02:30;100215.66;;;12.33;34.58
80640;BME280;69992;60.170;24.692;2023-09-30T09:04:58;100222.49;;;11.35;34.54
80640;BME280;69992;60.170;24.692;2023-09-30T09:07:21;100222.81;;;13.23;34.72
80640;BME280;69992;60.170;24.692;2023-09-30T09:12:19;100230.52;;;12.37;34.54
80640;BME280;69992;60.170;24.692;2023-09-30T09:14:39;100230.00;;;12.50;34.51
80640;BME280;69992;60.170;24.692;2023-09-30T09:17:03;100239.15;;;11.68;34.46
80640;BME280;69992;60.170;24.692;2023-09-30T09:19:28;100229.23;;;13.42;34.35
80640;BME280;69992;60.170;24.692;2023-09-30T09:21:55;100236.18;;;13.66;34.13
80640;BME280;69992;60.170;24.692;2023-09-30T09:24:27;100240.68;;;14.29;34.02
80640;BME280;69992;60.170;24.692;2023-09-30T09:26:44;100248.40;;;13.36;33.98
80640;BME280;69992;60.170;24.692;2023-09-30T09:29:10;100244.32;;;14.22;33.99
80640;BME280;69992;60.170;24.692;2023-09-30T09:31:36;100243.34;;;13.14;34.04
80640;BME280;69992;60.170;24.692;2023-09-30T09:34:01;100247.08;;;14.39;33.99
80640;BME280;69992;60.170;24.692;2023-09-30T09:38:51;100250.28;;;13.95;34.11
80640;BME280;69992;60.170;24.692;2023-09-30T09:41:17;100260.43;;;13.55;34.17
80640;BME280;69992;60.170;24.692;2023-09-30T09:43:42;100255.09;;;12.38;34.24
80640;BME280;69992;60.170;24.692;2023-09-30T09:46:08;100250.58;;;13.23;34.28
80640;BME280;69992;60.170;24.692;2023-09-30T09:48:34;100260.22;;;12.94;34.36
80640;BME280;69992;60.170;24.692;2023-09-30T09:50:59;100259.46;;;12.96;34.35
80640;BME280;69992;60.170;24.692;2023-09-30T09:53:25;100264.25;;;13.11;34.33
80640;BME280;69992;60.170;24.692;2023-09-30T09:55:50;100265.59;;;13.17;34.30
80640;BME280;69992;60.170;24.692;2023-09-30T09:58:16;100266.79;;;12.99;34.29
80640;BME280;69992;60.170;24.692;2023-09-30T10:00:41;100266.94;;;12.75;34.31
80640;BME280;69992;60.170;24.692;2023-09-30T10:03:06;100264.03;;;12.69;34.31
80640;BME280;69992;60.170;24.692;2023-09-30T10:05:32;100271.44;;;12.62;34.31
80640;BME280;69992;60.170;24.692;2023-09-30T10:08:03;100271.68;;;12.41;34.33
80640;BME280;69992;60.170;24.692;2023-09-30T10:10:23;100271.38;;;13.16;34.36
80640;BME280;69992;60.170;24.692;2023-09-30T10:12:48;100275.66;;;14.02;34.43
80640;BME280;69992;60.170;24.692;2023-09-30T10:20:06;100285.63;;;12.99;34.30
80640;BME280;69992;60.170;24.692;2023-09-30T10:22:30;100283.34;;;12.72;34.34
80640;BME280;69992;60.170;24.692;2023-09-30T10:24:56;100283.70;;;13.40;34.43
80640;BME280;69992;60.170;24.692;2023-09-30T10:27:30;100287.01;;;11.40;34.44
80640;BME280;69992;60.170;24.692;2023-09-30T10:29:46;100291.19;;;11.36;34.43
80640;BME280;69992;60.170;24.692;2023-09-30T10:32:12;100303.11;;;12.25;34.43
80640;BME280;69992;60.170;24.692;2023-09-30T10:34:37;100294.77;;;12.16;34.46
80640;BME280;69992;60.170;24.692;2023-09-30T10:41:53;100291.22;;;11.23;34.44
80640;BME280;69992;60.170;24.692;2023-09-30T10:44:33;100288.36;;;12.20;34.47
80640;BME280;69992;60.170;24.692;2023-09-30T10:46:44;100293.74;;;12.29;34.43
80640;BME280;69992;60.170;24.692;2023-09-30T10:49:15;100297.78;;;12.41;34.41
80640;BME280;69992;60.170;24.692;2023-09-30T10:51:38;100300.95;;;12.48;34.40
80640;BME280;69992;60.170;24.692;2023-09-30T10:54:01;100304.87;;;11.68;34.38
80640;BME280;69992;60.170;24.692;2023-09-30T10:56:32;100302.79;;;11.72;34.37
80640;BME280;69992;60.170;24.692;2023-09-30T10:58:52;100308.02;;;11.84;34.36
80640;BME280;69992;60.170;24.692;2023-09-30T11:01:18;100313.86;;;11.90;34.34
80640;BME280;69992;60.170;24.692;2023-09-30T11:03:43;100313.72;;;10.87;34.28
80640;BME280;69992;60.170;24.692;2023-09-30T11:06:10;100308.10;;;12.70;34.29
80640;BME280;69992;60.170;24.692;2023-09-30T11:08:34;100313.93;;;13.43;34.31
80640;BME280;69992;60.170;24.692;2023-09-30T11:10:59;100311.86;;;12.34;34.30
80640;BME280;69992;60.170;24.692;2023-09-30T11:13:32;100314.03;;;12.24;34.32
80640;BME280;69992;60.170;24.692;2023-09-30T11:15:59;100316.98;;;12.31;34.30
80640;BME280;69992;60.170;24.692;2023-09-30T11:18:16;100320.04;;;13.16;34.31
80640;BME280;69992;60.170;24.692;2023-09-30T11:20:41;100319.51;;;12.25;34.32
80640;BME280;69992;60.170;24.692;2023-09-30T11:23:06;100322.12;;;12.24;34.33
80640;BME280;69992;60.170;24.692;2023-09-30T11:25:35;100315.58;;;11.23;34.34
80640;BME280;69992;60.170;24.692;2023-09-30T11:28:13;100326.84;;;11.29;34.30
80640;BME280;69992;60.170;24.692;2023-09-30T11:30:22;100341.08;;;12.52;34.24
80640;BME280;69992;60.170;24.692;2023-09-30T11:32:47;100331.55;;;13.63;34.21
80640;BME280;69992;60.170;24.692;2023-09-30T11:35:22;100332.87;;;13.79;34.21
80640;BME280;69992;60.170;24.692;2023-09-30T11:37:41;100334.27;;;13.99;34.18
80640;BME280;69992;60.170;24.692;2023-09-30T11:40:11;100338.65;;;12.12;34.14
80640;BME280;69992;60.170;24.692;2023-09-30T11:42:29;100340.91;;;12.29;34.09
80640;BME280;69992;60.170;24.692;2023-09-30T11:44:55;100336.76;;;12.22;34.07
80640;BME280;69992;60.170;24.692;2023-09-30T11:47:28;100342.96;;;13.24;34.07
80640;BME280;69992;60.170;24.692;2023-09-30T11:49:52;100344.12;;;13.20;34.08
80640;BME280;69992;60.170;24.692;2023-09-30T11:52:12;100357.50;;;12.03;34.14
80640;BME280;69992;60.170;24.692;2023-09-30T11:54:38;100349.09;;;13.78;34.16
80640;BME280;69992;60.170;24.692;2023-09-30T11:57:02;100349.84;;;13.51;34.20
80640;BME280;69992;60.170;24.692;2023-09-30T11:59:27;100343.22;;;13.31;34.23
80640;BME280;69992;60.170;24.692;2023-09-30T12:01:53;100344.93;;;12.24;34.25
80640;BME280;69992;60.170;24.692;2023-09-30T12:04:18;100332.85;;;13.12;34.25
80640;BME280;69992;60.170;24.692;2023-09-30T12:06:43;100345.87;;;11.04;34.25
80640;BME280;69992;60.170;24.692;2023-09-30T12:09:09;100351.26;;;11.95;34.25
80640;BME280;69992;60.170;24.692;2023-09-30T12:11:34;100344.35;;;12.79;34.31
80640;BME280;69992;60.170;24.692;2023-09-30T12:14:00;100345.42;;;12.82;34.29
80640;BME280;69992;60.170;24.692;2023-09-30T12:16:25;100356.23;;;11.89;34.22
80640;BME280;69992;60.170;24.692;2023-09-30T12:18:51;100355.39;;;11.62;34.21
80640;BME280;69992;60.170;24.692;2023-09-30T12:21:16;100356.88;;;12.45;34.24
80640;BME280;69992;60.170;24.692;2023-09-30T12:23:41;100358.99;;;12.43;34.23
80640;BME280;69992;60.170;24.692;2023-09-30T12:26:07;100359.11;;;12.31;34.23
80640;BME280;69992;60.170;24.692;2023-09-30T12:28:33;100358.72;;;11.44;34.20
80640;BME280;69992;60.170;24.692;2023-09-30T12:30:58;100350.02;;;12.66;34.09
80640;BME280;69992;60.170;24.692;2023-09-30T12:33:23;100358.08;;;12.82;34.09
80640;BME280;69992;60.170;24.692;2023-09-30T12:35:49;100356.01;;;11.00;34.05
80640;BME280;69992;60.170;24.692;2023-09-30T12:38:14;100363.59;;;13.01;34.05
80640;BME280;69992;60.170;24.692;2023-09-30T12:40:40;100367.84;;;12.04;34.00
80640;BME280;69992;60.170;24.692;2023-09-30T12:43:05;100362.47;;;12.33;33.95
80640;BME280;69992;60.170;24.692;2023-09-30T12:45:31;100363.61;;;13.89;33.89
80640;BME280;69992;60.170;24.692;2023-09-30T12:47:56;100363.40;;;13.04;33.88